Time;durP1;ratioP1;P1;durP2;ratioP2;P2;SDS_P1;SDS_P2;PMS_P1;PMS_P2;Temp;Humidity;BMP_temperature;BMP_pressure;BME280_temperature;BME280_humidity;BME280_pressure;Samples;Min_cycle;Max_cycle;Signal;HPM_P1;HPM_P2
2022/09/03 00:00:13;;;;;;;5.60;2.50;;;;;14.56;97446.20;;;;110841;1251;41254;-61
2022/09/03 00:03:14;;;;;;;4.10;2.00;;;;;14.60;97447.80;;;;110838;1251;41149;-61
2022/09/03 00:05:50;;;;;;;5.60;2.20;;;;;14.60;97448.80;;;;110734;1251;41138;-61
2022/09/03 00:08:38;;;;;;;6.40;2.10;;;;;14.60;97450.60;;;;111145;1250;41154;-61
2022/09/03 00:11:20;;;;;;;5.60;2.20;;;;;14.60;97448.00;;;;110845;1251;41158;-62
2022/09/03 00:13:57;;;;;;;6.10;2.50;;;;;14.60;97443.80;;;;110774;1250;41605;-63
2022/09/03 00:16:42;;;;;;;8.20;2.80;;;;;14.60;97443.00;;;;110746;1251;41124;-62
2022/09/03 00:19:17;;;;;;;7.60;2.50;;;;;14.40;97449.00;;;;110736;1251;40840;-61
2022/09/03 00:21:49;;;;;;;4.80;2.20;;;;;14.50;97447.60;;;;110774;1253;40749;-61
2022/09/03 00:24:20;;;;;;;4.60;2.00;;;;;14.54;97446.00;;;;110699;1251;42146;-61
2022/09/03 00:26:56;;;;;;;6.40;2.00;;;;;14.52;97444.40;;;;110898;1250;42392;-61
2022/09/03 00:29:57;;;;;;;4.90;2.20;;;;;14.60;97446.20;;;;110779;1251;41653;-61
2022/09/03 00:32:46;;;;;;;5.20;1.70;;;;;14.60;97448.20;;;;110862;1251;41154;-61
2022/09/03 00:35:21;;;;;;;5.40;2.20;;;;;14.60;97449.00;;;;111048;1251;41309;-62
2022/09/03 00:37:52;;;;;;;6.20;2.20;;;;;14.62;97449.80;;;;110780;1251;41261;-62
2022/09/03 00:40:45;;;;;;;5.00;2.10;;;;;14.68;97448.20;;;;110848;1251;41189;-61
2022/09/03 00:44:06;;;;;;;4.60;2.10;;;;;14.70;97444.40;;;;110657;1251;41982;-62
2022/09/03 00:46:40;;;;;;;4.30;2.10;;;;;14.60;97441.60;;;;110553;1251;41178;-62
2022/09/03 00:49:27;;;;;;;4.20;1.90;;;;;14.60;97441.80;;;;110621;1251;42110;-62
2022/09/03 00:52:05;;;;;;;4.50;1.80;;;;;14.60;97445.80;;;;110745;1250;41151;-61
2022/09/03 00:54:53;;;;;;;4.70;2.20;;;;;14.60;97438.60;;;;110918;1251;41133;-62
2022/09/03 00:57:40;;;;;;;4.00;1.90;;;;;14.60;97440.80;;;;110653;1251;41249;-61
2022/09/03 01:00:13;;;;;;;4.80;1.90;;;;;14.70;97444.60;;;;110854;1251;41301;-62
2022/09/03 01:02:47;;;;;;;4.20;1.90;;;;;14.70;97448.20;;;;110723;1251;41912;-62
2022/09/03 01:05:46;;;;;;;3.30;1.80;;;;;14.70;97451.80;;;;110715;1251;41609;-62
2022/09/03 01:08:31;;;;;;;4.40;2.00;;;;;14.76;97454.00;;;;110662;1251;41838;-61
2022/09/03 01:11:03;;;;;;;6.20;2.10;;;;;14.80;97455.20;;;;110922;1250;42569;-61
2022/09/03 01:13:37;;;;;;;3.70;1.80;;;;;14.80;97455.40;;;;110774;1248;41142;-60
2022/09/03 01:16:12;;;;;;;5.60;2.20;;;;;14.80;97453.80;;;;110931;1248;41112;-60
2022/09/03 01:18:47;;;;;;;4.70;1.90;;;;;14.80;97455.00;;;;110891;1248;41529;-61
2022/09/03 01:21:29;;;;;;;5.10;2.20;;;;;14.80;97451.60;;;;111055;1250;42369;-62
2022/09/03 01:24:08;;;;;;;4.00;2.00;;;;;14.80;97452.00;;;;110969;1248;41138;-62
2022/09/03 01:27:00;;;;;;;3.60;1.70;;;;;14.80;97451.80;;;;110951;1248;43036;-62
2022/09/03 01:29:43;;;;;;;3.60;1.70;;;;;14.80;97452.80;;;;111006;1248;41193;-62
2022/09/03 01:32:34;;;;;;;3.90;1.60;;;;;14.88;97458.80;;;;110843;1248;41147;-63
2022/09/03 01:35:15;;;;;;;3.20;1.60;;;;;14.90;97456.20;;;;111008;1247;41259;-62
2022/09/03 01:37:50;;;;;;;4.20;1.70;;;;;14.90;97453.80;;;;111112;1250;42373;-61
2022/09/03 01:40:41;;;;;;;4.20;1.80;;;;;14.90;97451.20;;;;110947;1247;41246;-61
2022/09/03 01:43:23;;;;;;;3.20;1.70;;;;;14.90;97451.20;;;;111330;1247;41902;-62
2022/09/03 01:46:07;;;;;;;3.50;1.80;;;;;14.94;97453.60;;;;111126;1248;42022;-62
2022/09/03 01:48:41;;;;;;;5.80;2.10;;;;;14.96;97457.80;;;;111025;1248;41175;-62
2022/09/03 01:51:18;;;;;;;5.30;2.10;;;;;15.00;97460.00;;;;110890;1248;41139;-62
2022/09/03 01:54:05;;;;;;;6.50;2.20;;;;;15.00;97460.80;;;;111125;1247;42036;-62
2022/09/03 01:57:00;;;;;;;2.80;1.60;;;;;15.00;97463.60;;;;111054;1247;41199;-60
2022/09/03 01:59:45;;;;;;;3.60;1.80;;;;;15.00;97467.00;;;;111000;1248;41136;-61
2022/09/03 02:02:20;;;;;;;3.20;1.70;;;;;15.00;97463.00;;;;110979;1250;41158;-61
2022/09/03 02:05:07;;;;;;;5.30;2.10;;;;;15.00;97465.80;;;;111120;1247;41262;-61
2022/09/03 02:07:44;;;;;;;3.10;1.60;;;;;15.00;97462.40;;;;111093;1247;41614;-61
2022/09/03 02:10:18;;;;;;;4.00;1.70;;;;;15.00;97457.00;;;;111198;1249;41274;-62
2022/09/03 02:12:52;;;;;;;3.50;1.80;;;;;15.00;97455.60;;;;111024;1249;41238;-62
2022/09/03 02:15:24;;;;;;;2.40;1.50;;;;;15.00;97461.00;;;;111017;1248;41128;-62
2022/09/03 02:17:56;;;;;;;4.10;1.90;;;;;15.00;97458.20;;;;110942;1247;41380;-62
2022/09/03 02:20:28;;;;;;;3.10;1.70;;;;;15.00;97456.00;;;;110952;1248;41264;-61
2022/09/03 02:22:58;;;;;;;4.90;2.10;;;;;15.00;97457.60;;;;111061;1250;41141;-61
2022/09/03 02:25:34;;;;;;;5.00;2.10;;;;;15.00;97461.60;;;;111075;1248;41296;-61
2022/09/03 02:28:05;;;;;;;4.30;2.00;;;;;15.00;97464.80;;;;111027;1247;41484;-61
2022/09/03 02:30:47;;;;;;;3.60;1.70;;;;;15.00;97467.00;;;;111001;1247;41619;-62
2022/09/03 02:33:17;;;;;;;3.60;1.60;;;;;15.00;97464.40;;;;110961;1248;42817;-62
2022/09/03 02:35:47;;;;;;;6.80;2.10;;;;;14.98;97469.60;;;;110994;1248;42158;-62
2022/09/03 02:38:24;;;;;;;3.90;1.90;;;;;14.98;97465.80;;;;111097;1248;41168;-62
2022/09/03 02:40:56;;;;;;;3.00;1.70;;;;;15.00;97463.40;;;;111053;1248;41140;-62
2022/09/03 02:43:45;;;;;;;3.80;1.80;;;;;15.00;97469.80;;;;111061;1250;41610;-62
2022/09/03 02:46:25;;;;;;;5.00;2.10;;;;;15.00;97466.60;;;;111144;1247;41138;-60
2022/09/03 02:48:56;;;;;;;5.70;2.10;;;;;14.98;97464.80;;;;111069;1248;41175;-62
2022/09/03 02:51:26;;;;;;;4.50;1.90;;;;;14.90;97468.60;;;;110895;1250;41490;-62
2022/09/03 02:53:55;;;;;;;4.50;2.00;;;;;14.90;97470.00;;;;110847;1251;42375;-61
2022/09/03 02:56:26;;;;;;;6.20;2.00;;;;;14.90;97468.40;;;;110976;1250;41673;-60
2022/09/03 02:58:57;;;;;;;4.40;2.10;;;;;14.90;97465.40;;;;110981;1248;41149;-60
2022/09/03 03:01:26;;;;;;;3.70;1.90;;;;;14.90;97468.80;;;;110803;1250;42055;-61
2022/09/03 03:03:56;;;;;;;4.00;1.90;;;;;14.90;97467.00;;;;110955;1251;42332;-60
2022/09/03 03:06:26;;;;;;;6.10;2.40;;;;;14.90;97465.80;;;;111054;1247;41798;-61
2022/09/03 03:08:56;;;;;;;3.90;2.00;;;;;14.90;97465.20;;;;111022;1247;42542;-60
2022/09/03 03:11:27;;;;;;;4.60;2.10;;;;;14.90;97465.00;;;;111074;1250;40754;-61
2022/09/03 03:13:57;;;;;;;3.70;1.90;;;;;14.90;97467.20;;;;111384;1248;41127;-61
2022/09/03 03:16:28;;;;;;;3.90;1.70;;;;;14.90;97471.20;;;;111001;1248;41609;-61
2022/09/03 03:18:59;;;;;;;2.80;1.60;;;;;14.90;97476.60;;;;111006;1249;41434;-61
2022/09/03 03:21:29;;;;;;;3.70;1.80;;;;;14.90;97483.60;;;;110998;1250;42100;-62
2022/09/03 03:24:01;;;;;;;3.70;1.90;;;;;14.90;97479.60;;;;111205;1247;41166;-62
2022/09/03 03:26:30;;;;;;;4.60;1.90;;;;;14.90;97480.00;;;;111043;1247;42059;-62
2022/09/03 03:29:03;;;;;;;3.00;1.60;;;;;14.90;97474.60;;;;111061;1249;41707;-61
2022/09/03 03:31:37;;;;;;;4.50;2.00;;;;;14.94;97474.80;;;;110960;1247;41194;-62
2022/09/03 03:34:07;;;;;;;3.80;1.60;;;;;14.94;97476.80;;;;111006;1248;41998;-62
2022/09/03 03:36:37;;;;;;;4.20;1.80;;;;;15.00;97474.20;;;;111041;1250;41026;-62
2022/09/03 03:39:06;;;;;;;3.00;1.70;;;;;14.98;97477.40;;;;111040;1247;41587;-62
2022/09/03 03:41:37;;;;;;;4.60;1.70;;;;;15.00;97474.80;;;;110915;1247;41280;-62
2022/09/03 03:44:08;;;;;;;5.10;1.70;;;;;15.00;97472.80;;;;111075;1249;41421;-63
2022/09/03 03:46:39;;;;;;;3.70;1.70;;;;;15.00;97472.60;;;;110605;1250;41136;-62
2022/09/03 03:49:09;;;;;;;4.00;1.60;;;;;15.00;97474.00;;;;110813;1251;41729;-62
2022/09/03 03:51:39;;;;;;;4.70;1.80;;;;;15.00;97476.60;;;;111028;1247;41763;-62
2022/09/03 03:54:08;;;;;;;3.50;1.70;;;;;15.00;97476.80;;;;111124;1247;41153;-61
2022/09/03 03:56:39;;;;;;;5.20;2.00;;;;;15.00;97480.80;;;;110943;1250;41153;-61
2022/09/03 03:59:08;;;;;;;3.90;1.80;;;;;15.00;97479.60;;;;110986;1248;41974;-61
2022/09/03 04:01:37;;;;;;;3.80;1.60;;;;;15.00;97478.80;;;;111030;1248;41246;-62
2022/09/03 04:04:06;;;;;;;3.50;1.60;;;;;15.00;97478.60;;;;111100;1250;41159;-61
2022/09/03 04:06:35;;;;;;;3.60;1.40;;;;;15.00;97480.80;;;;111237;1247;41920;-61
2022/09/03 04:09:04;;;;;;;3.50;1.60;;;;;15.00;97476.60;;;;111151;1250;41617;-61
2022/09/03 04:11:34;;;;;;;5.20;1.80;;;;;15.00;97476.60;;;;110978;1249;41627;-61
2022/09/03 04:14:03;;;;;;;4.80;2.10;;;;;15.00;97479.00;;;;111047;1248;41979;-61
2022/09/03 04:16:32;;;;;;;5.40;2.00;;;;;15.00;97479.20;;;;111128;1247;41844;-62
2022/09/03 04:19:02;;;;;;;5.00;2.10;;;;;14.92;97476.40;;;;111108;1248;41425;-61
2022/09/03 04:21:31;;;;;;;6.90;2.40;;;;;14.90;97480.20;;;;111174;1250;41308;-61
2022/09/03 04:24:00;;;;;;;6.10;2.40;;;;;14.90;97479.60;;;;111086;1248;41520;-61
2022/09/03 04:26:30;;;;;;;5.00;2.10;;;;;14.90;97482.80;;;;111137;1248;41152;-61
2022/09/03 04:29:09;;;;;;;4.40;2.00;;;;;14.92;97482.40;;;;111012;1247;41622;-62
2022/09/03 04:32:51;;;;;;;5.40;1.90;;;;;14.98;97485.20;;;;110959;1248;42062;-63
2022/09/03 04:34:28;;;;;;;4.90;1.90;;;;;15.00;97484.20;;;;111103;1247;41134;-62
2022/09/03 04:36:57;;;;;;;5.80;1.90;;;;;14.96;97482.20;;;;111104;1247;41120;-61
2022/09/03 04:39:27;;;;;;;3.50;1.80;;;;;15.00;97481.40;;;;111017;1250;41185;-62
2022/09/03 04:41:56;;;;;;;4.00;1.80;;;;;15.00;97485.20;;;;111321;1247;41156;-63
2022/09/03 04:44:27;;;;;;;;;;;;;15.00;97487.80;;;;111302;1247;41910;-62
2022/09/03 04:46:56;;;;;;;3.90;1.70;;;;;15.00;97491.20;;;;111329;1247;41730;-62
2022/09/03 04:49:25;;;;;;;4.30;2.00;;;;;15.08;97489.60;;;;111104;1250;40889;-62
2022/09/03 04:51:57;;;;;;;3.70;1.70;;;;;15.10;97489.40;;;;110973;1249;41168;-61
2022/09/03 04:54:27;;;;;;;5.40;2.00;;;;;15.10;97488.00;;;;109834;1250;1822616;-62
2022/09/03 04:56:57;;;;;;;5.40;2.00;;;;;15.10;97487.60;;;;111104;1248;42447;-61
2022/09/03 04:59:27;;;;;;;4.20;2.00;;;;;15.10;97492.00;;;;111181;1247;41273;-62
2022/09/03 05:01:56;;;;;;;3.30;1.70;;;;;15.12;97492.80;;;;111309;1249;41156;-61
2022/09/03 05:04:26;;;;;;;4.50;1.70;;;;;15.20;97492.20;;;;111320;1248;42068;-62
2022/09/03 05:06:55;;;;;;;2.90;1.60;;;;;15.20;97490.80;;;;110946;1248;41521;-61
2022/09/03 05:09:24;;;;;;;3.70;1.90;;;;;15.20;97489.20;;;;111035;1247;41147;-61
2022/09/03 05:11:54;;;;;;;4.30;1.90;;;;;15.20;97486.80;;;;111087;1248;40987;-61
2022/09/03 05:14:23;;;;;;;4.40;2.00;;;;;15.24;97491.60;;;;111152;1249;42117;-62
2022/09/03 05:16:52;;;;;;;4.70;1.90;;;;;15.26;97490.60;;;;111319;1248;41275;-61
2022/09/03 05:19:21;;;;;;;2.60;1.60;;;;;15.30;97495.20;;;;111209;1247;41502;-61
2022/09/03 05:21:50;;;;;;;4.40;1.80;;;;;15.30;97490.40;;;;110975;1247;41467;-61
2022/09/03 05:24:19;;;;;;;4.20;1.90;;;;;15.30;97492.20;;;;111548;1247;40830;-62
2022/09/03 05:26:48;;;;;;;5.90;2.30;;;;;15.30;97495.00;;;;111266;1247;41153;-61
2022/09/03 05:29:18;;;;;;;4.10;1.90;;;;;15.32;97496.80;;;;111413;1247;40748;-62
2022/09/03 05:31:47;;;;;;;4.70;1.90;;;;;15.30;97498.20;;;;111102;1248;41617;-62
2022/09/03 05:34:16;;;;;;;4.90;1.90;;;;;15.32;97495.80;;;;111400;1249;41263;-62
2022/09/03 05:36:48;;;;;;;5.60;2.10;;;;;15.40;97500.60;;;;111044;1249;41168;-62
2022/09/03 05:39:18;;;;;;;6.30;2.30;;;;;15.40;97500.20;;;;111087;1247;41150;-62
2022/09/03 05:41:49;;;;;;;4.60;2.00;;;;;15.36;97506.60;;;;111404;1247;41251;-62
2022/09/03 05:44:22;;;;;;;4.80;2.00;;;;;15.30;97505.80;;;;111112;1248;41154;-62
2022/09/03 05:46:52;;;;;;;4.50;1.90;;;;;15.30;97509.40;;;;111523;1247;41137;-61
2022/09/03 05:49:21;;;;;;;4.50;2.00;;;;;15.30;97512.80;;;;110932;1249;41429;-63
2022/09/03 05:51:50;;;;;;;5.80;2.10;;;;;15.40;97511.20;;;;111112;1250;40735;-62
2022/09/03 05:54:18;;;;;;;6.50;1.90;;;;;15.20;97511.80;;;;111215;1249;40830;-60
2022/09/03 05:56:48;;;;;;;5.30;2.20;;;;;15.20;97513.80;;;;111331;1246;41394;-61
2022/09/03 05:59:18;;;;;;;4.90;2.20;;;;;15.10;97516.20;;;;111069;1247;41142;-61
2022/09/03 06:01:48;;;;;;;4.50;2.10;;;;;15.10;97523.20;;;;111275;1248;41194;-62
2022/09/03 06:04:20;;;;;;;4.10;1.90;;;;;15.20;97517.40;;;;111293;1247;42117;-61
2022/09/03 06:06:49;;;;;;;5.70;2.30;;;;;15.10;97521.00;;;;111193;1247;41175;-61
2022/09/03 06:09:20;;;;;;;4.60;2.10;;;;;15.20;97523.00;;;;111150;1248;41143;-61
2022/09/03 06:11:52;;;;;;;5.10;2.20;;;;;15.20;97525.80;;;;111259;1250;41426;-63
2022/09/03 06:14:22;;;;;;;5.10;2.20;;;;;15.18;97526.00;;;;111282;1247;41916;-63
2022/09/03 06:16:51;;;;;;;5.90;2.10;;;;;15.20;97524.60;;;;111378;1248;41734;-62
2022/09/03 06:19:20;;;;;;;5.10;2.10;;;;;15.06;97527.80;;;;111286;1248;42541;-61
2022/09/03 06:21:49;;;;;;;5.70;2.30;;;;;15.06;97531.20;;;;111178;1247;40946;-63
2022/09/03 06:24:22;;;;;;;6.80;2.40;;;;;15.00;97529.00;;;;111262;1248;41276;-62
2022/09/03 06:26:55;;;;;;;3.60;1.90;;;;;15.00;97531.40;;;;111335;1247;41155;-62
2022/09/03 06:29:24;;;;;;;4.40;2.00;;;;;15.08;97532.60;;;;111363;1247;40933;-62
2022/09/03 06:31:53;;;;;;;6.50;2.10;;;;;15.10;97528.20;;;;111219;1248;41149;-62
2022/09/03 06:34:25;;;;;;;5.10;2.00;;;;;15.14;97531.00;;;;111259;1247;41228;-63
2022/09/03 06:36:54;;;;;;;5.70;2.00;;;;;15.14;97531.60;;;;111081;1247;41643;-64
2022/09/03 06:39:25;;;;;;;6.60;2.20;;;;;15.18;97534.20;;;;110930;1250;41206;-63
2022/09/03 06:41:54;;;;;;;7.50;3.00;;;;;15.20;97530.40;;;;111320;1249;41269;-63
2022/09/03 06:44:27;;;;;;;9.20;3.60;;;;;15.20;97530.40;;;;111046;1247;42391;-62
2022/09/03 06:47:00;;;;;;;14.80;5.40;;;;;15.20;97531.60;;;;111226;1247;41270;-62
2022/09/03 06:49:30;;;;;;;14.40;6.00;;;;;15.20;97529.80;;;;111242;1248;41147;-62
2022/09/03 06:51:59;;;;;;;6.40;2.40;;;;;15.30;97531.40;;;;111005;1249;42384;-62
2022/09/03 06:54:29;;;;;;;3.70;1.90;;;;;15.30;97537.00;;;;111161;1247;42541;-62
2022/09/03 06:56:58;;;;;;;4.50;1.90;;;;;15.32;97538.00;;;;111222;1247;41261;-61
2022/09/03 06:59:27;;;;;;;5.90;2.20;;;;;15.30;97538.80;;;;111610;1247;41366;-62
2022/09/03 07:01:59;;;;;;;4.70;2.00;;;;;15.40;97538.80;;;;111361;1248;41619;-62
2022/09/03 07:04:28;;;;;;;3.50;1.70;;;;;15.40;97547.00;;;;111110;1248;41703;-62
2022/09/03 07:06:57;;;;;;;4.90;1.90;;;;;15.40;97544.00;;;;110883;1249;41647;-62
2022/09/03 07:09:26;;;;;;;4.90;1.90;;;;;15.50;97548.00;;;;111125;1247;41884;-62
2022/09/03 07:11:55;;;;;;;4.10;1.90;;;;;15.50;97549.00;;;;111173;1248;41714;-62
2022/09/03 07:14:24;;;;;;;4.20;1.90;;;;;15.52;97548.40;;;;111450;1247;41935;-62
2022/09/03 07:16:53;;;;;;;4.60;2.10;;;;;15.60;97554.00;;;;111203;1247;41164;-62
2022/09/03 07:19:22;;;;;;;4.90;2.00;;;;;15.60;97552.20;;;;111259;1250;41252;-61
2022/09/03 07:21:50;;;;;;;3.60;1.90;;;;;15.60;97551.20;;;;110968;1250;41143;-61
2022/09/03 07:24:20;;;;;;;4.70;1.90;;;;;15.60;97545.60;;;;111191;1247;41127;-62
2022/09/03 07:26:50;;;;;;;3.20;1.70;;;;;15.50;97546.40;;;;111065;1249;41467;-60
2022/09/03 07:29:19;;;;;;;3.40;1.70;;;;;15.50;97549.60;;;;111108;1248;41266;-60
2022/09/03 07:31:50;;;;;;;3.70;1.80;;;;;15.50;97547.00;;;;111202;1247;41185;-60
2022/09/03 07:34:23;;;;;;;3.20;1.70;;;;;15.54;97551.00;;;;110982;1247;41991;-61
2022/09/03 07:36:53;;;;;;;3.30;1.70;;;;;15.60;97554.40;;;;111073;1247;41167;-61
2022/09/03 07:39:22;;;;;;;3.80;1.70;;;;;15.70;97555.60;;;;111143;1248;41595;-63
2022/09/03 07:41:51;;;;;;;3.50;1.80;;;;;15.70;97559.80;;;;111115;1247;41156;-62
2022/09/03 07:44:21;;;;;;;2.80;1.50;;;;;15.80;97561.40;;;;111115;1249;41145;-62
2022/09/03 07:46:50;;;;;;;4.00;1.70;;;;;15.80;97558.80;;;;111387;1248;41158;-61
2022/09/03 07:49:20;;;;;;;3.60;1.60;;;;;15.80;97565.80;;;;111421;1247;42417;-62
2022/09/03 07:51:52;;;;;;;3.30;1.70;;;;;15.70;97565.60;;;;111058;1247;41875;-61
2022/09/03 07:54:24;;;;;;;5.20;1.90;;;;;15.70;97569.00;;;;111194;1249;41152;-60
2022/09/03 07:56:54;;;;;;;4.30;1.80;;;;;15.68;97571.00;;;;111348;1247;41555;-61
2022/09/03 07:59:23;;;;;;;2.80;1.60;;;;;15.70;97575.60;;;;111443;1247;41146;-62
2022/09/03 08:01:52;;;;;;;2.40;1.50;;;;;15.70;97582.00;;;;111594;1247;41143;-62
2022/09/03 08:04:21;;;;;;;4.00;1.80;;;;;15.78;97584.80;;;;111277;1247;41217;-62
2022/09/03 08:06:54;;;;;;;5.90;1.80;;;;;15.80;97585.20;;;;111302;1247;40887;-62
2022/09/03 08:09:23;;;;;;;3.30;1.60;;;;;15.78;97587.80;;;;111270;1247;41623;-62
2022/09/03 08:11:53;;;;;;;3.20;1.60;;;;;15.70;97588.20;;;;111172;1250;40912;-62
2022/09/03 08:14:23;;;;;;;3.60;1.60;;;;;15.64;97586.40;;;;111023;1250;42155;-62
2022/09/03 08:16:52;;;;;;;3.90;1.60;;;;;15.62;97582.80;;;;111193;1248;42488;-62
2022/09/03 08:19:22;;;;;;;4.60;1.70;;;;;15.70;97583.00;;;;111185;1249;41206;-63
2022/09/03 08:21:54;;;;;;;3.00;1.40;;;;;15.70;97585.40;;;;111097;1249;41572;-62
2022/09/03 08:24:25;;;;;;;3.70;1.70;;;;;15.70;97585.60;;;;110953;1249;42450;-62
2022/09/03 08:26:53;;;;;;;3.30;1.70;;;;;15.70;97587.60;;;;110817;1249;41204;-62
2022/09/03 08:29:22;;;;;;;3.00;1.50;;;;;15.70;97586.60;;;;110970;1249;42778;-62
2022/09/03 08:31:52;;;;;;;3.20;1.70;;;;;15.70;97584.40;;;;111141;1248;42581;-61
2022/09/03 08:34:22;;;;;;;3.10;1.60;;;;;15.80;97585.00;;;;111365;1248;41171;-62
2022/09/03 08:36:53;;;;;;;;;;;;;15.80;97589.40;;;;111212;1248;42735;-62
2022/09/03 08:39:22;;;;;;;4.30;1.90;;;;;15.88;97594.00;;;;111049;1249;41656;-62
2022/09/03 08:42:10;;;;;;;2.60;1.60;;;;;15.90;97591.80;;;;111007;1248;41463;-62
2022/09/03 08:45:01;;;;;;;1.80;1.40;;;;;15.90;97589.80;;;;111345;1247;41892;-62
2022/09/03 08:47:38;;;;;;;6.00;1.50;;;;;16.00;97587.60;;;;110956;1248;41156;-62
2022/09/03 08:50:12;;;;;;;3.00;1.60;;;;;16.10;97589.20;;;;111044;1250;41136;-62
2022/09/03 08:52:48;;;;;;;1.40;1.30;;;;;16.10;97589.80;;;;111228;1247;41183;-62
2022/09/03 08:55:17;;;;;;;2.00;1.30;;;;;16.10;97589.40;;;;111365;1249;41285;-62
2022/09/03 08:57:49;;;;;;;2.20;1.30;;;;;16.10;97590.60;;;;111305;1249;41364;-61
2022/09/03 09:00:18;;;;;;;2.20;1.40;;;;;16.10;97591.40;;;;111160;1250;41943;-62
2022/09/03 09:03:07;;;;;;;2.50;1.50;;;;;16.10;97594.00;;;;111190;1247;41135;-61
2022/09/03 09:05:41;;;;;;;2.90;1.30;;;;;16.12;97591.80;;;;111078;1248;41256;-62
2022/09/03 09:08:31;;;;;;;3.00;1.60;;;;;16.10;97592.80;;;;111337;1247;42294;-62
2022/09/03 09:11:22;;;;;;;2.00;1.20;;;;;16.10;97594.80;;;;111085;1250;42172;-62
2022/09/03 09:14:23;;;;;;;2.10;1.30;;;;;16.06;97594.60;;;;110973;1250;41143;-62
2022/09/03 09:17:18;;;;;;;1.60;1.30;;;;;15.88;97595.80;;;;111050;1251;41165;-62
2022/09/03 09:20:01;;;;;;;3.20;1.50;;;;;15.92;97597.40;;;;111143;1250;41729;-62
2022/09/03 09:22:40;;;;;;;3.50;1.60;;;;;15.98;97595.40;;;;111361;1250;41945;-62
2022/09/03 09:25:17;;;;;;;2.50;1.40;;;;;16.10;97602.60;;;;110916;1252;41271;-62
2022/09/03 09:27:51;;;;;;;1.40;1.30;;;;;16.10;97598.00;;;;110739;1251;41374;-61
2022/09/03 09:30:20;;;;;;;1.30;1.20;;;;;16.10;97600.40;;;;110834;1251;40760;-62
2022/09/03 09:32:48;;;;;;;3.30;1.50;;;;;16.20;97598.60;;;;110963;1250;41260;-62
2022/09/03 09:35:19;;;;;;;6.20;2.90;;;;;16.20;97600.20;;;;111050;1250;41298;-62
2022/09/03 09:37:52;;;;;;;1.90;1.40;;;;;16.22;97597.40;;;;111006;1250;41622;-61
2022/09/03 09:40:31;;;;;;;3.10;1.40;;;;;16.30;97595.60;;;;110973;1250;41159;-60
2022/09/03 09:43:10;;;;;;;3.50;1.70;;;;;16.30;97599.20;;;;110769;1251;42152;-60
2022/09/03 09:45:44;;;;;;;1.50;1.20;;;;;16.30;97600.60;;;;110936;1251;42138;-62
2022/09/03 09:48:29;;;;;;;1.70;1.40;;;;;16.22;97601.40;;;;110964;1251;41141;-61
2022/09/03 09:51:10;;;;;;;2.30;1.40;;;;;16.30;97600.20;;;;110723;1251;41630;-63
2022/09/03 09:53:41;;;;;;;4.80;2.00;;;;;16.30;97601.40;;;;110954;1250;41604;-62
2022/09/03 09:56:24;;;;;;;2.40;1.40;;;;;16.40;97603.00;;;;111038;1250;41167;-62
2022/09/03 09:59:06;;;;;;;2.70;1.60;;;;;16.50;97610.20;;;;110854;1250;41165;-62
2022/09/03 10:01:38;;;;;;;1.40;1.20;;;;;16.50;97612.80;;;;110765;1251;42135;-62
2022/09/03 10:04:10;;;;;;;1.50;1.20;;;;;16.44;97611.00;;;;110674;1250;41161;-62
2022/09/03 10:06:58;;;;;;;2.10;1.30;;;;;16.44;97608.00;;;;111036;1249;41252;-62
2022/09/03 10:09:31;;;;;;;7.00;2.60;;;;;16.50;97611.40;;;;110689;1250;41175;-62
2022/09/03 10:12:18;;;;;;;2.40;1.40;;;;;16.50;97612.00;;;;111114;1250;41685;-62
2022/09/03 10:15:13;;;;;;;3.60;1.40;;;;;16.50;97613.40;;;;110990;1250;41139;-63
2022/09/03 10:18:01;;;;;;;1.40;1.10;;;;;16.50;97609.40;;;;111031;1250;41142;-62
2022/09/03 10:20:50;;;;;;;2.90;1.30;;;;;16.46;97609.60;;;;110886;1250;41269;-61
2022/09/03 10:23:28;;;;;;;3.60;1.50;;;;;16.60;97608.40;;;;110957;1252;41638;-62
2022/09/03 10:26:10;;;;;;;2.00;1.30;;;;;16.60;97615.00;;;;110847;1250;41154;-63
2022/09/03 10:28:42;;;;;;;1.20;1.10;;;;;16.60;97609.60;;;;110960;1250;42387;-63
2022/09/03 10:31:27;;;;;;;2.30;1.30;;;;;16.52;97608.60;;;;111047;1251;42387;-63
2022/09/03 10:34:23;;;;;;;9.00;4.90;;;;;16.56;97610.60;;;;111146;1250;41613;-64
2022/09/03 10:37:41;;;;;;;2.70;1.50;;;;;16.60;97613.40;;;;110746;1250;41636;-62
2022/09/03 10:40:31;;;;;;;2.10;1.40;;;;;16.70;97609.40;;;;110764;1252;41805;-62
2022/09/03 10:43:08;;;;;;;2.60;1.50;;;;;16.84;97611.00;;;;110842;1250;41133;-62
2022/09/03 10:45:54;;;;;;;8.10;1.80;;;;;16.90;97609.00;;;;110878;1250;41267;-61
2022/09/03 10:48:53;;;;;;;4.40;1.30;;;;;17.00;97610.00;;;;110872;1250;41389;-63
2022/09/03 10:51:32;;;;;;;1.20;1.10;;;;;17.00;97616.00;;;;110910;1250;41269;-62
2022/09/03 10:54:31;;;;;;;1.40;1.30;;;;;17.00;97610.00;;;;110856;1250;41853;-60
2022/09/03 10:57:36;;;;;;;1.30;1.20;;;;;17.00;97606.80;;;;110844;1251;41997;-61
2022/09/03 11:00:11;;;;;;;1.70;1.10;;;;;17.10;97608.40;;;;111011;1250;42134;-60
2022/09/03 11:03:18;;;;;;;1.50;1.20;;;;;17.10;97601.00;;;;110812;1250;41674;-62
2022/09/03 11:05:58;;;;;;;1.20;1.10;;;;;17.20;97601.40;;;;110985;1250;41488;-61
2022/09/03 11:08:34;;;;;;;1.30;1.20;;;;;17.18;97598.00;;;;110882;1250;41152;-62
2022/09/03 11:11:18;;;;;;;1.30;1.20;;;;;17.10;97603.00;;;;111065;1250;41149;-62
2022/09/03 11:14:03;;;;;;;1.60;1.10;;;;;17.10;97610.00;;;;110945;1250;41156;-62
2022/09/03 12:25:48;;;;;;;1.50;1.10;;;;;17.60;97613.40;;;;107553;1289;581651;-62
2022/09/03 12:28:22;;;;;;;0.90;0.90;;;;;17.80;97614.00;;;;108571;1263;1830729;-61
2022/09/03 12:30:52;;;;;;;1.00;1.00;;;;;17.86;97617.20;;;;110411;1260;41149;-62
2022/09/03 12:33:24;;;;;;;1.10;1.00;;;;;17.96;97615.00;;;;110592;1257;41143;-62
2022/09/03 12:36:00;;;;;;;2.00;1.20;;;;;18.10;97612.20;;;;110977;1257;41407;-62
2022/09/03 12:38:34;;;;;;;1.40;1.20;;;;;18.20;97614.00;;;;111586;1247;41360;-62
2022/09/03 12:41:27;;;;;;;2.50;1.30;;;;;18.30;97612.80;;;;111257;1247;41154;-61
2022/09/03 12:44:01;;;;;;;1.60;1.30;;;;;18.30;97611.80;;;;111224;1247;41278;-61
2022/09/03 12:46:33;;;;;;;2.00;1.40;;;;;18.20;97607.80;;;;111317;1248;41244;-61
2022/09/03 12:49:06;;;;;;;2.20;1.30;;;;;18.20;97606.60;;;;111090;1250;41221;-61
2022/09/03 12:52:01;;;;;;;1.20;1.10;;;;;18.20;97596.60;;;;111170;1247;41709;-62
2022/09/03 12:54:51;;;;;;;1.70;1.20;;;;;18.30;97595.80;;;;111244;1247;41152;-61
2022/09/03 12:57:32;;;;;;;4.00;1.40;;;;;18.30;97595.40;;;;111453;1246;41172;-61
2022/09/03 13:00:08;;;;;;;4.00;1.40;;;;;18.40;97595.60;;;;111296;1247;42829;-61
2022/09/03 13:02:52;;;;;;;2.60;1.40;;;;;18.44;97593.80;;;;111415;1247;41643;-61
2022/09/03 13:05:32;;;;;;;2.10;1.40;;;;;18.36;97594.20;;;;111624;1248;41998;-60
2022/09/03 13:08:04;;;;;;;3.40;1.40;;;;;18.38;97591.60;;;;111419;1247;41149;-63
2022/09/03 13:10:37;;;;;;;1.30;1.20;;;;;18.46;97592.20;;;;111095;1247;41370;-62
2022/09/03 13:13:15;;;;;;;2.00;1.30;;;;;18.50;97596.20;;;;111431;1247;41156;-62
2022/09/03 13:16:34;;;;;;;1.30;1.20;;;;;18.50;97599.60;;;;111524;1247;41269;-61
2022/09/03 13:19:06;;;;;;;1.40;1.20;;;;;18.52;97605.20;;;;111183;1248;41149;-62
2022/09/03 13:21:45;;;;;;;2.30;1.30;;;;;18.60;97604.40;;;;111281;1248;41264;-62
2022/09/03 13:24:26;;;;;;;2.30;1.40;;;;;18.50;97600.20;;;;111503;1247;41760;-62
2022/09/03 13:27:17;;;;;;;2.40;1.30;;;;;18.68;97612.00;;;;111348;1247;41342;-61
2022/09/03 13:30:07;;;;;;;1.90;1.20;;;;;18.56;97612.40;;;;111447;1246;41611;-63
2022/09/03 13:32:56;;;;;;;2.50;1.40;;;;;18.60;97615.60;;;;111573;1247;41003;-62
2022/09/03 13:35:46;;;;;;;1.30;1.20;;;;;18.60;97607.40;;;;111295;1247;41149;-62
2022/09/03 13:38:38;;;;;;;;;;;;;18.70;97610.00;;;;111400;1247;41029;-60
2022/09/03 13:41:19;;;;;;;2.10;1.30;;;;;18.80;97606.20;;;;110993;1251;41161;-61
2022/09/03 13:43:56;;;;;;;1.80;1.30;;;;;18.82;97613.80;;;;111190;1248;41420;-61
2022/09/03 13:46:32;;;;;;;2.20;1.40;;;;;18.90;97608.80;;;;111342;1247;41145;-61
2022/09/03 13:52:41;;;;;;;2.10;1.40;;;;;18.90;97608.60;;;;111316;1247;41675;-61
2022/09/03 13:55:35;;;;;;;1.30;1.20;;;;;19.10;97605.60;;;;111361;1247;41453;-61
2022/09/03 13:58:07;;;;;;;3.00;1.50;;;;;19.50;97605.40;;;;111368;1248;41625;-60
2022/09/03 14:00:37;;;;;;;3.00;1.50;;;;;19.54;97607.60;;;;110964;1250;41733;-61
2022/09/03 14:03:43;;;;;;;3.80;1.60;;;;;19.88;97603.20;;;;111419;1247;41600;-61